Airfield :







YOU CAN JOIN US ON...

 
LOGIN :

Register | Disclaimer

   EN    FR    IT 

 









Legend :    VFR   Marginal VFR   IFR   Intensive IFR   Very Intensive IFR
Visi :
Ceiling :
>= 8 km
>= 3000ft
5 to 8 km
1000 to 3000 ft
1500m to 5 km
500 to 1000 ft
800 to 1500m
200 to 500 ft
< 800m
< 200 ft
Symbols :   Thunderstorms  Fog  Heavy snow  Heavy precipitations  Wind > 20 kt






- Airport Elevation : 6 ft
- IATA code : AEY


BIAR - Akureyri

CURRENT METAR :
  • 231800Z 30007KT 9999 FEW024 M04/M06 Q1017

EXPIRED METARs :
  • 231700Z 33013G23KT 9999 R01/1400VP2000N -SN VV010 M04/M06 Q1017
  • 231600Z 36012KT 9999 R01/0800VP2000N -SN SCT008 BKN020 M04/M05 Q1017 RESHSN

TAF TAF BIAR
Valid from the 23 at 18:00 until the 24 at 18:00 UTC


231604Z 2318/2418 35018KT 9999 -SHSN SCT012 BKN020 TX00/2415Z TNM03/2318Z
TEMPO 2318/2418 1000 SHSN OVC012
BECMG 2321/2323 36024G34KT



MET'MAP, your aeronautical weather chart ! - Copyright ORBIFLY December 2007 - Disclaimer

ORBIFLY MET'MAP TEAM :

Programming & Development : Alexandra Zaïnal
Concept & Development : Baudouin d'Aumeries
Co-Development & Prog : Marc-Olivier Méhu
Technical & hardware support : Manuel Goepfert

Contact : metmap@orbifly.com




SOURCES & CREDITS :

   NOAA